sensor_id;sensor_type;location;lat;lon;timestamp;temperature;humidity
24860;DHT22;12936;52.006;4.350;2023-06-04T00:01:27;19.80;95.60
24860;DHT22;12936;52.006;4.350;2023-06-04T00:03:55;19.80;95.70
24860;DHT22;12936;52.006;4.350;2023-06-04T00:06:26;19.70;95.90
24860;DHT22;12936;52.006;4.350;2023-06-04T00:08:55;19.70;95.80
24860;DHT22;12936;52.006;4.350;2023-06-04T00:11:23;19.60;95.80
24860;DHT22;12936;52.006;4.350;2023-06-04T00:13:53;19.60;95.80
24860;DHT22;12936;52.006;4.350;2023-06-04T00:16:21;19.60;95.80
24860;DHT22;12936;52.006;4.350;2023-06-04T00:18:49;19.60;95.90
24860;DHT22;12936;52.006;4.350;2023-06-04T00:21:18;19.60;95.80
24860;DHT22;12936;52.006;4.350;2023-06-04T00:23:49;19.50;95.80
24860;DHT22;12936;52.006;4.350;2023-06-04T00:26:19;19.50;95.90
24860;DHT22;12936;52.006;4.350;2023-06-04T00:28:50;19.40;95.90
24860;DHT22;12936;52.006;4.350;2023-06-04T00:31:18;19.40;95.90
24860;DHT22;12936;52.006;4.350;2023-06-04T00:33:51;19.40;95.90
24860;DHT22;12936;52.006;4.350;2023-06-04T00:36:19;19.40;95.90
24860;DHT22;12936;52.006;4.350;2023-06-04T00:38:49;19.30;96.30
24860;DHT22;12936;52.006;4.350;2023-06-04T00:41:17;19.30;96.00
24860;DHT22;12936;52.006;4.350;2023-06-04T00:43:46;19.30;95.90
24860;DHT22;12936;52.006;4.350;2023-06-04T00:46:23;19.30;96.00
24860;DHT22;12936;52.006;4.350;2023-06-04T00:48:54;19.20;96.00
24860;DHT22;12936;52.006;4.350;2023-06-04T00:51:22;19.20;95.90
24860;DHT22;12936;52.006;4.350;2023-06-04T00:53:52;19.20;96.00
24860;DHT22;12936;52.006;4.350;2023-06-04T00:56:24;19.20;95.90
24860;DHT22;12936;52.006;4.350;2023-06-04T00:58:53;19.20;96.20
24860;DHT22;12936;52.006;4.350;2023-06-04T01:01:34;19.10;96.00
24860;DHT22;12936;52.006;4.350;2023-06-04T01:04:11;19.10;95.90
24860;DHT22;12936;52.006;4.350;2023-06-04T01:06:43;19.10;95.90
24860;DHT22;12936;52.006;4.350;2023-06-04T01:09:14;19.10;95.90
24860;DHT22;12936;52.006;4.350;2023-06-04T01:11:42;19.10;96.00
24860;DHT22;12936;52.006;4.350;2023-06-04T01:14:10;19.00;96.00
24860;DHT22;12936;52.006;4.350;2023-06-04T01:16:47;19.00;96.00
24860;DHT22;12936;52.006;4.350;2023-06-04T01:19:41;19.00;95.90
24860;DHT22;12936;52.006;4.350;2023-06-04T01:22:22;18.90;96.00
24860;DHT22;12936;52.006;4.350;2023-06-04T01:25:02;19.00;95.90
24860;DHT22;12936;52.006;4.350;2023-06-04T01:27:31;18.90;95.90
24860;DHT22;12936;52.006;4.350;2023-06-04T01:30:02;18.90;95.80
24860;DHT22;12936;52.006;4.350;2023-06-04T01:32:31;18.90;95.80
24860;DHT22;12936;52.006;4.350;2023-06-04T01:34:59;18.90;95.90
24860;DHT22;12936;52.006;4.350;2023-06-04T01:37:28;18.80;95.90
24860;DHT22;12936;52.006;4.350;2023-06-04T01:39:56;18.80;96.00
24860;DHT22;12936;52.006;4.350;2023-06-04T01:42:25;18.80;95.90
24860;DHT22;12936;52.006;4.350;2023-06-04T01:44:54;18.70;96.00
24860;DHT22;12936;52.006;4.350;2023-06-04T01:47:22;18.80;96.00
24860;DHT22;12936;52.006;4.350;2023-06-04T01:49:51;18.70;96.00
24860;DHT22;12936;52.006;4.350;2023-06-04T01:52:19;18.70;96.10
24860;DHT22;12936;52.006;4.350;2023-06-04T01:54:48;18.70;95.90
24860;DHT22;12936;52.006;4.350;2023-06-04T01:57:19;18.60;96.00
24860;DHT22;12936;52.006;4.350;2023-06-04T01:59:52;18.60;95.90
24860;DHT22;12936;52.006;4.350;2023-06-04T02:02:20;18.60;96.00
24860;DHT22;12936;52.006;4.350;2023-06-04T02:04:48;18.60;96.00
24860;DHT22;12936;52.006;4.350;2023-06-04T02:07:19;18.50;96.00
24860;DHT22;12936;52.006;4.350;2023-06-04T02:09:50;18.50;96.00
24860;DHT22;12936;52.006;4.350;2023-06-04T02:12:18;18.50;95.90
24860;DHT22;12936;52.006;4.350;2023-06-04T02:14:47;18.50;95.90
24860;DHT22;12936;52.006;4.350;2023-06-04T02:17:18;18.40;95.90
24860;DHT22;12936;52.006;4.350;2023-06-04T02:19:46;18.40;95.90
24860;DHT22;12936;52.006;4.350;2023-06-04T02:22:17;18.40;95.90
24860;DHT22;12936;52.006;4.350;2023-06-04T02:24:46;18.40;95.90
24860;DHT22;12936;52.006;4.350;2023-06-04T02:27:15;18.40;95.90
24860;DHT22;12936;52.006;4.350;2023-06-04T02:29:43;18.30;95.80
24860;DHT22;12936;52.006;4.350;2023-06-04T02:32:12;18.30;95.80
24860;DHT22;12936;52.006;4.350;2023-06-04T02:34:42;18.20;95.90
24860;DHT22;12936;52.006;4.350;2023-06-04T02:37:13;18.20;95.90
24860;DHT22;12936;52.006;4.350;2023-06-04T02:39:43;18.20;96.10
24860;DHT22;12936;52.006;4.350;2023-06-04T02:42:11;18.10;96.00
24860;DHT22;12936;52.006;4.350;2023-06-04T02:44:59;18.10;95.90
24860;DHT22;12936;52.006;4.350;2023-06-04T02:47:28;18.00;96.00
24860;DHT22;12936;52.006;4.350;2023-06-04T02:49:57;18.00;95.90
24860;DHT22;12936;52.006;4.350;2023-06-04T02:52:25;18.00;95.90
24860;DHT22;12936;52.006;4.350;2023-06-04T02:54:53;17.90;95.70
24860;DHT22;12936;52.006;4.350;2023-06-04T02:57:23;17.90;95.70
24860;DHT22;12936;52.006;4.350;2023-06-04T02:59:51;17.90;95.80
24860;DHT22;12936;52.006;4.350;2023-06-04T03:02:22;17.90;95.70
24860;DHT22;12936;52.006;4.350;2023-06-04T03:04:50;17.90;95.70
24860;DHT22;12936;52.006;4.350;2023-06-04T03:07:20;17.80;95.70
24860;DHT22;12936;52.006;4.350;2023-06-04T03:09:49;17.80;95.80
24860;DHT22;12936;52.006;4.350;2023-06-04T03:12:17;17.80;95.80
24860;DHT22;12936;52.006;4.350;2023-06-04T03:14:46;17.70;95.70
24860;DHT22;12936;52.006;4.350;2023-06-04T03:17:17;17.70;95.70
24860;DHT22;12936;52.006;4.350;2023-06-04T03:19:45;17.70;95.70
24860;DHT22;12936;52.006;4.350;2023-06-04T03:22:15;17.70;95.60
24860;DHT22;12936;52.006;4.350;2023-06-04T03:24:44;17.60;95.60
24860;DHT22;12936;52.006;4.350;2023-06-04T03:27:12;17.60;95.70
24860;DHT22;12936;52.006;4.350;2023-06-04T03:29:41;17.60;96.20
24860;DHT22;12936;52.006;4.350;2023-06-04T03:32:29;17.60;95.60
24860;DHT22;12936;52.006;4.350;2023-06-04T03:34:57;17.50;95.60
24860;DHT22;12936;52.006;4.350;2023-06-04T03:37:26;17.50;95.60
24860;DHT22;12936;52.006;4.350;2023-06-04T03:39:56;17.50;95.60
24860;DHT22;12936;52.006;4.350;2023-06-04T03:42:24;17.50;95.60
24860;DHT22;12936;52.006;4.350;2023-06-04T03:44:52;17.40;95.70
24860;DHT22;12936;52.006;4.350;2023-06-04T03:47:20;17.40;95.60
24860;DHT22;12936;52.006;4.350;2023-06-04T03:49:49;17.40;95.60
24860;DHT22;12936;52.006;4.350;2023-06-04T03:52:18;17.40;95.60
24860;DHT22;12936;52.006;4.350;2023-06-04T03:54:46;17.30;95.50
24860;DHT22;12936;52.006;4.350;2023-06-04T03:57:16;17.30;95.60
24860;DHT22;12936;52.006;4.350;2023-06-04T03:59:46;17.30;95.50
24860;DHT22;12936;52.006;4.350;2023-06-04T04:02:36;17.30;95.50
24860;DHT22;12936;52.006;4.350;2023-06-04T04:05:06;17.30;95.60
24860;DHT22;12936;52.006;4.350;2023-06-04T04:07:34;17.20;95.60
24860;DHT22;12936;52.006;4.350;2023-06-04T04:10:03;17.20;96.00
24860;DHT22;12936;52.006;4.350;2023-06-04T04:12:54;17.20;95.70
24860;DHT22;12936;52.006;4.350;2023-06-04T04:15:25;17.10;95.70
24860;DHT22;12936;52.006;4.350;2023-06-04T04:17:54;17.10;95.60
24860;DHT22;12936;52.006;4.350;2023-06-04T04:20:25;17.10;95.60
24860;DHT22;12936;52.006;4.350;2023-06-04T04:22:54;17.10;95.60
24860;DHT22;12936;52.006;4.350;2023-06-04T04:25:23;17.10;95.70
24860;DHT22;12936;52.006;4.350;2023-06-04T04:27:55;17.10;95.70
24860;DHT22;12936;52.006;4.350;2023-06-04T04:30:27;17.10;95.70
24860;DHT22;12936;52.006;4.350;2023-06-04T04:32:56;17.10;95.70
24860;DHT22;12936;52.006;4.350;2023-06-04T04:35:24;17.10;95.70
24860;DHT22;12936;52.006;4.350;2023-06-04T04:37:52;17.00;95.80
24860;DHT22;12936;52.006;4.350;2023-06-04T04:40:21;17.00;95.80
24860;DHT22;12936;52.006;4.350;2023-06-04T04:42:49;17.00;95.80
24860;DHT22;12936;52.006;4.350;2023-06-04T04:45:18;17.10;95.80
24860;DHT22;12936;52.006;4.350;2023-06-04T04:47:47;17.00;95.70
24860;DHT22;12936;52.006;4.350;2023-06-04T04:50:16;17.10;95.80
24860;DHT22;12936;52.006;4.350;2023-06-04T04:52:44;17.10;95.90
24860;DHT22;12936;52.006;4.350;2023-06-04T04:55:12;17.10;95.90
24860;DHT22;12936;52.006;4.350;2023-06-04T04:57:40;17.10;96.10
24860;DHT22;12936;52.006;4.350;2023-06-04T05:00:09;17.10;96.20
24860;DHT22;12936;52.006;4.350;2023-06-04T05:02:39;17.00;96.10
24860;DHT22;12936;52.006;4.350;2023-06-04T05:05:08;17.00;96.20
24860;DHT22;12936;52.006;4.350;2023-06-04T05:07:37;17.00;96.50
24860;DHT22;12936;52.006;4.350;2023-06-04T05:10:06;17.00;96.20
24860;DHT22;12936;52.006;4.350;2023-06-04T05:12:36;17.00;96.30
24860;DHT22;12936;52.006;4.350;2023-06-04T05:15:05;17.00;96.60
24860;DHT22;12936;52.006;4.350;2023-06-04T05:17:33;17.00;96.80
24860;DHT22;12936;52.006;4.350;2023-06-04T05:20:04;17.00;96.50
24860;DHT22;12936;52.006;4.350;2023-06-04T05:22:34;17.10;96.40
24860;DHT22;12936;52.006;4.350;2023-06-04T05:25:03;17.10;96.50
24860;DHT22;12936;52.006;4.350;2023-06-04T05:27:35;17.10;96.60
24860;DHT22;12936;52.006;4.350;2023-06-04T05:30:08;17.10;96.60
24860;DHT22;12936;52.006;4.350;2023-06-04T05:32:38;17.10;96.80
24860;DHT22;12936;52.006;4.350;2023-06-04T05:35:13;17.10;96.70
24860;DHT22;12936;52.006;4.350;2023-06-04T05:37:44;17.10;97.00
24860;DHT22;12936;52.006;4.350;2023-06-04T05:40:12;17.20;96.70
24860;DHT22;12936;52.006;4.350;2023-06-04T05:42:41;17.20;96.90
24860;DHT22;12936;52.006;4.350;2023-06-04T05:45:09;17.20;97.30
24860;DHT22;12936;52.006;4.350;2023-06-04T05:47:37;17.20;97.00
24860;DHT22;12936;52.006;4.350;2023-06-04T05:50:06;17.20;96.90
24860;DHT22;12936;52.006;4.350;2023-06-04T05:52:36;17.30;97.00
24860;DHT22;12936;52.006;4.350;2023-06-04T05:55:05;17.30;97.10
24860;DHT22;12936;52.006;4.350;2023-06-04T05:57:34;17.30;97.30
24860;DHT22;12936;52.006;4.350;2023-06-04T06:00:03;17.30;97.30
24860;DHT22;12936;52.006;4.350;2023-06-04T06:02:35;17.30;97.20
24860;DHT22;12936;52.006;4.350;2023-06-04T06:05:06;17.40;97.40
24860;DHT22;12936;52.006;4.350;2023-06-04T06:07:37;17.40;97.50
24860;DHT22;12936;52.006;4.350;2023-06-04T06:10:08;17.40;97.30
24860;DHT22;12936;52.006;4.350;2023-06-04T06:12:37;17.40;97.40
24860;DHT22;12936;52.006;4.350;2023-06-04T06:15:08;17.50;97.70
24860;DHT22;12936;52.006;4.350;2023-06-04T06:17:38;17.50;97.70
24860;DHT22;12936;52.006;4.350;2023-06-04T06:20:11;17.50;97.80
24860;DHT22;12936;52.006;4.350;2023-06-04T06:22:46;17.60;97.70
24860;DHT22;12936;52.006;4.350;2023-06-04T06:25:14;17.60;97.50
24860;DHT22;12936;52.006;4.350;2023-06-04T06:27:42;17.60;97.60
24860;DHT22;12936;52.006;4.350;2023-06-04T06:30:11;17.70;97.70
24860;DHT22;12936;52.006;4.350;2023-06-04T06:32:39;17.70;97.70
24860;DHT22;12936;52.006;4.350;2023-06-04T06:35:08;17.70;97.70
24860;DHT22;12936;52.006;4.350;2023-06-04T06:37:36;17.80;97.60
24860;DHT22;12936;52.006;4.350;2023-06-04T06:40:10;17.80;97.60
24860;DHT22;12936;52.006;4.350;2023-06-04T06:42:38;17.90;97.70
24860;DHT22;12936;52.006;4.350;2023-06-04T06:45:07;17.90;97.70
24860;DHT22;12936;52.006;4.350;2023-06-04T06:47:35;17.90;97.70
24860;DHT22;12936;52.006;4.350;2023-06-04T06:50:04;17.90;97.70
24860;DHT22;12936;52.006;4.350;2023-06-04T06:52:32;17.90;97.70
24860;DHT22;12936;52.006;4.350;2023-06-04T06:55:00;17.90;97.70
24860;DHT22;12936;52.006;4.350;2023-06-04T06:57:29;18.00;97.70
24860;DHT22;12936;52.006;4.350;2023-06-04T06:59:58;18.00;98.00
24860;DHT22;12936;52.006;4.350;2023-06-04T07:02:26;18.00;97.70
24860;DHT22;12936;52.006;4.350;2023-06-04T07:04:55;18.10;97.70
24860;DHT22;12936;52.006;4.350;2023-06-04T07:07:23;18.10;97.70
24860;DHT22;12936;52.006;4.350;2023-06-04T07:09:51;18.10;97.70
24860;DHT22;12936;52.006;4.350;2023-06-04T07:12:19;18.20;97.70
24860;DHT22;12936;52.006;4.350;2023-06-04T07:14:49;18.20;97.70
24860;DHT22;12936;52.006;4.350;2023-06-04T07:17:17;18.20;97.60
24860;DHT22;12936;52.006;4.350;2023-06-04T07:19:45;18.20;97.60
24860;DHT22;12936;52.006;4.350;2023-06-04T07:22:13;18.20;97.50
24860;DHT22;12936;52.006;4.350;2023-06-04T07:24:43;18.30;97.60
24860;DHT22;12936;52.006;4.350;2023-06-04T07:27:14;18.30;97.70
24860;DHT22;12936;52.006;4.350;2023-06-04T07:29:43;18.40;97.70
24860;DHT22;12936;52.006;4.350;2023-06-04T07:32:13;18.40;97.80
24860;DHT22;12936;52.006;4.350;2023-06-04T07:34:41;18.40;97.80
24860;DHT22;12936;52.006;4.350;2023-06-04T07:37:09;18.40;97.90
24860;DHT22;12936;52.006;4.350;2023-06-04T07:39:39;18.50;97.90
24860;DHT22;12936;52.006;4.350;2023-06-04T07:42:07;18.50;97.90
24860;DHT22;12936;52.006;4.350;2023-06-04T07:44:36;18.50;97.80
24860;DHT22;12936;52.006;4.350;2023-06-04T07:47:05;18.50;97.90
24860;DHT22;12936;52.006;4.350;2023-06-04T07:49:34;18.60;97.90
24860;DHT22;12936;52.006;4.350;2023-06-04T07:52:17;18.60;98.00
24860;DHT22;12936;52.006;4.350;2023-06-04T07:54:52;18.60;98.00
24860;DHT22;12936;52.006;4.350;2023-06-04T07:57:22;18.60;98.00
24860;DHT22;12936;52.006;4.350;2023-06-04T07:59:51;18.70;98.00
24860;DHT22;12936;52.006;4.350;2023-06-04T08:02:20;18.70;98.10
24860;DHT22;12936;52.006;4.350;2023-06-04T08:04:50;18.80;98.10
24860;DHT22;12936;52.006;4.350;2023-06-04T08:07:19;18.80;98.20
24860;DHT22;12936;52.006;4.350;2023-06-04T08:09:49;18.90;98.30
24860;DHT22;12936;52.006;4.350;2023-06-04T08:12:18;18.90;98.30
24860;DHT22;12936;52.006;4.350;2023-06-04T08:14:49;18.90;98.20
24860;DHT22;12936;52.006;4.350;2023-06-04T08:17:20;18.90;98.20
24860;DHT22;12936;52.006;4.350;2023-06-04T08:19:49;18.90;98.20
24860;DHT22;12936;52.006;4.350;2023-06-04T08:22:18;19.00;98.30
24860;DHT22;12936;52.006;4.350;2023-06-04T08:24:46;19.00;98.30
24860;DHT22;12936;52.006;4.350;2023-06-04T08:27:14;19.10;98.00
24860;DHT22;12936;52.006;4.350;2023-06-04T08:29:46;19.10;98.00
24860;DHT22;12936;52.006;4.350;2023-06-04T08:32:14;19.10;97.80
24860;DHT22;12936;52.006;4.350;2023-06-04T08:34:42;19.10;97.70
24860;DHT22;12936;52.006;4.350;2023-06-04T08:37:12;19.10;97.80
24860;DHT22;12936;52.006;4.350;2023-06-04T08:39:40;19.10;97.90
24860;DHT22;12936;52.006;4.350;2023-06-04T08:42:15;19.10;97.90
24860;DHT22;12936;52.006;4.350;2023-06-04T08:44:50;19.20;97.90
24860;DHT22;12936;52.006;4.350;2023-06-04T08:47:19;19.30;97.90
24860;DHT22;12936;52.006;4.350;2023-06-04T08:49:49;19.30;98.10
24860;DHT22;12936;52.006;4.350;2023-06-04T08:52:19;19.40;97.90
24860;DHT22;12936;52.006;4.350;2023-06-04T08:54:49;19.40;98.00
24860;DHT22;12936;52.006;4.350;2023-06-04T08:57:18;19.40;98.10
24860;DHT22;12936;52.006;4.350;2023-06-04T08:59:47;19.50;97.90
24860;DHT22;12936;52.006;4.350;2023-06-04T09:02:16;19.50;98.20
24860;DHT22;12936;52.006;4.350;2023-06-04T09:04:45;19.50;97.90
24860;DHT22;12936;52.006;4.350;2023-06-04T09:07:14;19.50;97.90
24860;DHT22;12936;52.006;4.350;2023-06-04T09:09:47;19.50;98.10
24860;DHT22;12936;52.006;4.350;2023-06-04T09:12:40;19.60;98.20
24860;DHT22;12936;52.006;4.350;2023-06-04T09:16:00;19.70;98.20
24860;DHT22;12936;52.006;4.350;2023-06-04T09:18:28;19.70;98.70
24860;DHT22;12936;52.006;4.350;2023-06-04T09:21:17;19.70;98.50
24860;DHT22;12936;52.006;4.350;2023-06-04T09:23:48;19.80;98.60
24860;DHT22;12936;52.006;4.350;2023-06-04T09:26:18;19.80;98.50
24860;DHT22;12936;52.006;4.350;2023-06-04T09:28:46;19.90;98.60
24860;DHT22;12936;52.006;4.350;2023-06-04T09:31:15;19.90;98.60
24860;DHT22;12936;52.006;4.350;2023-06-04T09:33:44;20.00;98.80
24860;DHT22;12936;52.006;4.350;2023-06-04T09:36:13;20.00;98.90
24860;DHT22;12936;52.006;4.350;2023-06-04T09:38:41;20.00;98.80
24860;DHT22;12936;52.006;4.350;2023-06-04T09:41:12;20.10;98.80
24860;DHT22;12936;52.006;4.350;2023-06-04T09:43:41;20.10;98.70
24860;DHT22;12936;52.006;4.350;2023-06-04T09:46:11;20.20;98.80
24860;DHT22;12936;52.006;4.350;2023-06-04T09:48:40;20.20;98.80
24860;DHT22;12936;52.006;4.350;2023-06-04T09:51:09;20.30;98.80
24860;DHT22;12936;52.006;4.350;2023-06-04T09:53:37;20.30;98.70
24860;DHT22;12936;52.006;4.350;2023-06-04T09:56:06;20.30;98.90
24860;DHT22;12936;52.006;4.350;2023-06-04T09:58:57;20.40;99.00
24860;DHT22;12936;52.006;4.350;2023-06-04T10:01:28;20.40;98.90
24860;DHT22;12936;52.006;4.350;2023-06-04T10:03:58;20.50;98.90
24860;DHT22;12936;52.006;4.350;2023-06-04T10:06:33;20.50;98.90
24860;DHT22;12936;52.006;4.350;2023-06-04T10:09:05;20.50;98.50
24860;DHT22;12936;52.006;4.350;2023-06-04T10:11:35;20.50;98.40
24860;DHT22;12936;52.006;4.350;2023-06-04T10:14:10;20.50;98.60
24860;DHT22;12936;52.006;4.350;2023-06-04T10:16:44;20.60;98.80
24860;DHT22;12936;52.006;4.350;2023-06-04T10:19:13;20.60;98.90
24860;DHT22;12936;52.006;4.350;2023-06-04T10:21:42;20.60;98.80
24860;DHT22;12936;52.006;4.350;2023-06-04T10:24:14;20.70;99.00
24860;DHT22;12936;52.006;4.350;2023-06-04T10:26:42;20.70;98.60
24860;DHT22;12936;52.006;4.350;2023-06-04T10:29:14;20.70;98.50
24860;DHT22;12936;52.006;4.350;2023-06-04T10:31:42;20.70;98.50
24860;DHT22;12936;52.006;4.350;2023-06-04T10:34:12;20.70;98.30
24860;DHT22;12936;52.006;4.350;2023-06-04T10:36:45;20.70;98.00
24860;DHT22;12936;52.006;4.350;2023-06-04T10:39:13;20.80;98.20
24860;DHT22;12936;52.006;4.350;2023-06-04T10:41:41;20.80;98.20
24860;DHT22;12936;52.006;4.350;2023-06-04T10:44:10;20.80;98.40
24860;DHT22;12936;52.006;4.350;2023-06-04T10:46:41;20.90;98.30
24860;DHT22;12936;52.006;4.350;2023-06-04T10:49:10;20.90;98.10
24860;DHT22;12936;52.006;4.350;2023-06-04T10:51:39;21.00;98.10
24860;DHT22;12936;52.006;4.350;2023-06-04T10:54:07;21.00;98.60
24860;DHT22;12936;52.006;4.350;2023-06-04T10:56:36;21.00;98.20
24860;DHT22;12936;52.006;4.350;2023-06-04T10:59:15;21.10;97.90
24860;DHT22;12936;52.006;4.350;2023-06-04T11:01:45;21.10;98.00
24860;DHT22;12936;52.006;4.350;2023-06-04T11:04:21;21.10;97.90
24860;DHT22;12936;52.006;4.350;2023-06-04T11:07:00;21.20;98.20
24860;DHT22;12936;52.006;4.350;2023-06-04T11:09:30;21.20;98.10
24860;DHT22;12936;52.006;4.350;2023-06-04T11:12:00;21.20;98.10
24860;DHT22;12936;52.006;4.350;2023-06-04T11:14:30;21.20;97.80
24860;DHT22;12936;52.006;4.350;2023-06-04T11:17:10;21.30;98.10
24860;DHT22;12936;52.006;4.350;2023-06-04T11:19:39;21.30;97.70
24860;DHT22;12936;52.006;4.350;2023-06-04T11:22:10;21.30;97.60
24860;DHT22;12936;52.006;4.350;2023-06-04T11:24:38;21.30;97.90
24860;DHT22;12936;52.006;4.350;2023-06-04T11:27:08;21.30;97.90
24860;DHT22;12936;52.006;4.350;2023-06-04T11:29:51;21.40;97.80
24860;DHT22;12936;52.006;4.350;2023-06-04T11:32:24;21.50;97.70
24860;DHT22;12936;52.006;4.350;2023-06-04T11:35:02;21.50;97.70
24860;DHT22;12936;52.006;4.350;2023-06-04T11:37:31;21.50;97.20
24860;DHT22;12936;52.006;4.350;2023-06-04T11:40:00;21.60;97.70
24860;DHT22;12936;52.006;4.350;2023-06-04T11:42:29;21.60;97.40
24860;DHT22;12936;52.006;4.350;2023-06-04T11:44:58;21.60;97.40
24860;DHT22;12936;52.006;4.350;2023-06-04T11:47:28;21.70;97.20
24860;DHT22;12936;52.006;4.350;2023-06-04T11:49:58;21.70;97.70
24860;DHT22;12936;52.006;4.350;2023-06-04T11:52:27;21.80;97.70
24860;DHT22;12936;52.006;4.350;2023-06-04T11:54:56;21.80;97.10
24860;DHT22;12936;52.006;4.350;2023-06-04T11:57:24;21.80;97.40
24860;DHT22;12936;52.006;4.350;2023-06-04T11:59:52;21.90;97.30
24860;DHT22;12936;52.006;4.350;2023-06-04T12:02:21;21.90;97.60
24860;DHT22;12936;52.006;4.350;2023-06-04T12:04:51;22.00;97.70
24860;DHT22;12936;52.006;4.350;2023-06-04T12:07:20;22.10;97.90
24860;DHT22;12936;52.006;4.350;2023-06-04T12:09:51;22.20;97.10
24860;DHT22;12936;52.006;4.350;2023-06-04T12:12:22;22.30;97.10
24860;DHT22;12936;52.006;4.350;2023-06-04T12:14:58;22.40;97.50
24860;DHT22;12936;52.006;4.350;2023-06-04T12:17:26;22.40;96.90
24860;DHT22;12936;52.006;4.350;2023-06-04T12:19:56;22.50;97.20
24860;DHT22;12936;52.006;4.350;2023-06-04T12:22:27;22.60;97.30
24860;DHT22;12936;52.006;4.350;2023-06-04T12:24:56;22.70;96.10
24860;DHT22;12936;52.006;4.350;2023-06-04T12:27:27;22.80;96.90
24860;DHT22;12936;52.006;4.350;2023-06-04T12:29:56;22.90;97.30
24860;DHT22;12936;52.006;4.350;2023-06-04T12:32:25;23.00;97.40
24860;DHT22;12936;52.006;4.350;2023-06-04T12:34:53;23.20;98.40
24860;DHT22;12936;52.006;4.350;2023-06-04T12:37:23;23.20;98.30
24860;DHT22;12936;52.006;4.350;2023-06-04T12:39:53;23.10;98.70
24860;DHT22;12936;52.006;4.350;2023-06-04T12:42:22;23.30;98.90
24860;DHT22;12936;52.006;4.350;2023-06-04T12:44:50;23.40;98.40
24860;DHT22;12936;52.006;4.350;2023-06-04T12:47:18;23.50;97.20
24860;DHT22;12936;52.006;4.350;2023-06-04T12:49:48;23.60;98.10
24860;DHT22;12936;52.006;4.350;2023-06-04T12:52:17;23.70;98.50
24860;DHT22;12936;52.006;4.350;2023-06-04T12:54:47;23.80;98.80
24860;DHT22;12936;52.006;4.350;2023-06-04T12:57:15;23.90;98.60
24860;DHT22;12936;52.006;4.350;2023-06-04T12:59:43;23.90;99.00
24860;DHT22;12936;52.006;4.350;2023-06-04T13:02:11;23.90;98.70
24860;DHT22;12936;52.006;4.350;2023-06-04T13:04:39;24.00;98.40
24860;DHT22;12936;52.006;4.350;2023-06-04T13:07:13;24.00;98.60
24860;DHT22;12936;52.006;4.350;2023-06-04T13:09:41;24.00;98.70
24860;DHT22;12936;52.006;4.350;2023-06-04T13:12:11;24.10;98.60
24860;DHT22;12936;52.006;4.350;2023-06-04T13:14:40;24.10;98.70
24860;DHT22;12936;52.006;4.350;2023-06-04T13:17:08;24.20;98.80
24860;DHT22;12936;52.006;4.350;2023-06-04T13:19:48;24.20;98.50
24860;DHT22;12936;52.006;4.350;2023-06-04T13:22:16;24.30;98.80
24860;DHT22;12936;52.006;4.350;2023-06-04T13:24:44;24.30;98.80
24860;DHT22;12936;52.006;4.350;2023-06-04T13:27:15;24.30;98.70
24860;DHT22;12936;52.006;4.350;2023-06-04T13:29:45;24.30;97.90
24860;DHT22;12936;52.006;4.350;2023-06-04T13:32:16;24.30;98.30
24860;DHT22;12936;52.006;4.350;2023-06-04T13:34:45;24.30;98.30
24860;DHT22;12936;52.006;4.350;2023-06-04T13:37:14;24.40;98.70
24860;DHT22;12936;52.006;4.350;2023-06-04T13:39:43;24.50;98.40
24860;DHT22;12936;52.006;4.350;2023-06-04T13:42:11;24.60;98.90
24860;DHT22;12936;52.006;4.350;2023-06-04T13:44:40;24.60;98.40
24860;DHT22;12936;52.006;4.350;2023-06-04T13:47:08;24.70;98.90
24860;DHT22;12936;52.006;4.350;2023-06-04T13:49:36;24.70;98.70
24860;DHT22;12936;52.006;4.350;2023-06-04T13:52:04;24.80;98.30
24860;DHT22;12936;52.006;4.350;2023-06-04T13:54:33;24.80;98.10
24860;DHT22;12936;52.006;4.350;2023-06-04T13:57:02;24.90;98.40
24860;DHT22;12936;52.006;4.350;2023-06-04T13:59:31;25.00;98.30
24860;DHT22;12936;52.006;4.350;2023-06-04T14:02:01;25.00;98.40
24860;DHT22;12936;52.006;4.350;2023-06-04T14:04:29;25.00;98.40
24860;DHT22;12936;52.006;4.350;2023-06-04T14:06:57;25.10;98.50
24860;DHT22;12936;52.006;4.350;2023-06-04T14:09:26;25.10;98.30
24860;DHT22;12936;52.006;4.350;2023-06-04T14:11:54;25.20;98.10
24860;DHT22;12936;52.006;4.350;2023-06-04T14:14:22;25.30;98.50
24860;DHT22;12936;52.006;4.350;2023-06-04T14:16:50;25.30;98.10
24860;DHT22;12936;52.006;4.350;2023-06-04T14:19:25;25.30;97.80
24860;DHT22;12936;52.006;4.350;2023-06-04T14:21:53;25.30;98.70
24860;DHT22;12936;52.006;4.350;2023-06-04T14:24:21;25.30;98.60
24860;DHT22;12936;52.006;4.350;2023-06-04T14:26:49;25.40;98.10
24860;DHT22;12936;52.006;4.350;2023-06-04T14:29:17;25.40;98.00
24860;DHT22;12936;52.006;4.350;2023-06-04T14:31:46;25.50;98.30
24860;DHT22;12936;52.006;4.350;2023-06-04T14:34:14;25.50;98.20
24860;DHT22;12936;52.006;4.350;2023-06-04T14:36:45;25.60;98.80
24860;DHT22;12936;52.006;4.350;2023-06-04T14:39:13;25.70;98.50
24860;DHT22;12936;52.006;4.350;2023-06-04T14:41:41;25.70;98.10
24860;DHT22;12936;52.006;4.350;2023-06-04T14:44:09;25.80;98.40
24860;DHT22;12936;52.006;4.350;2023-06-04T14:46:37;25.90;97.90
24860;DHT22;12936;52.006;4.350;2023-06-04T14:49:05;25.90;98.10
24860;DHT22;12936;52.006;4.350;2023-06-04T14:51:33;25.90;98.00
24860;DHT22;12936;52.006;4.350;2023-06-04T14:54:03;25.90;98.40
24860;DHT22;12936;52.006;4.350;2023-06-04T14:56:31;26.00;98.20
24860;DHT22;12936;52.006;4.350;2023-06-04T14:59:00;26.10;97.90
24860;DHT22;12936;52.006;4.350;2023-06-04T15:01:28;26.20;98.30
24860;DHT22;12936;52.006;4.350;2023-06-04T15:03:57;26.30;98.50
24860;DHT22;12936;52.006;4.350;2023-06-04T15:06:25;26.30;97.70
24860;DHT22;12936;52.006;4.350;2023-06-04T15:08:53;26.30;98.00
24860;DHT22;12936;52.006;4.350;2023-06-04T15:11:22;26.20;97.90
24860;DHT22;12936;52.006;4.350;2023-06-04T15:13:50;26.30;98.50
24860;DHT22;12936;52.006;4.350;2023-06-04T15:16:18;26.40;97.60
24860;DHT22;12936;52.006;4.350;2023-06-04T15:18:47;26.60;98.50
24860;DHT22;12936;52.006;4.350;2023-06-04T15:21:15;26.60;97.50
24860;DHT22;12936;52.006;4.350;2023-06-04T15:23:44;26.70;98.00
24860;DHT22;12936;52.006;4.350;2023-06-04T15:26:16;26.70;97.40
24860;DHT22;12936;52.006;4.350;2023-06-04T15:28:54;26.70;97.00
24860;DHT22;12936;52.006;4.350;2023-06-04T15:31:23;26.70;98.00
24860;DHT22;12936;52.006;4.350;2023-06-04T15:33:51;26.70;97.40
24860;DHT22;12936;52.006;4.350;2023-06-04T15:36:20;26.80;97.60
24860;DHT22;12936;52.006;4.350;2023-06-04T15:38:50;26.90;98.00
24860;DHT22;12936;52.006;4.350;2023-06-04T15:41:19;26.90;97.40
24860;DHT22;12936;52.006;4.350;2023-06-04T15:43:48;26.90;97.20
24860;DHT22;12936;52.006;4.350;2023-06-04T15:46:18;27.00;97.90
24860;DHT22;12936;52.006;4.350;2023-06-04T15:48:46;27.00;97.50